sensor_id;sensor_type;location;lat;lon;timestamp;P1;durP1;ratioP1;P2;durP2;ratioP2
62121;SDS011;48108;47.532;19.084;2023-02-01T05:01:14;3.10;;;2.37;;
62121;SDS011;48108;47.532;19.084;2023-02-01T05:04:17;3.12;;;2.65;;
62121;SDS011;48108;47.532;19.084;2023-02-01T05:07:21;4.32;;;2.78;;
62121;SDS011;48108;47.532;19.084;2023-02-01T05:10:24;4.05;;;3.08;;
62121;SDS011;48108;47.532;19.084;2023-02-01T05:13:27;3.45;;;2.70;;
62121;SDS011;48108;47.532;19.084;2023-02-01T05:16:48;3.10;;;2.80;;
62121;SDS011;48108;47.532;19.084;2023-02-01T05:19:51;3.15;;;2.53;;
62121;SDS011;48108;47.532;19.084;2023-02-01T05:22:53;2.70;;;2.50;;
62121;SDS011;48108;47.532;19.084;2023-02-01T05:26:00;3.83;;;2.72;;
62121;SDS011;48108;47.532;19.084;2023-02-01T05:29:04;3.03;;;2.72;;
62121;SDS011;48108;47.532;19.084;2023-02-01T05:32:09;3.20;;;2.90;;
62121;SDS011;48108;47.532;19.084;2023-02-01T05:35:23;2.87;;;2.67;;
62121;SDS011;48108;47.532;19.084;2023-02-01T05:38:26;3.10;;;2.80;;
62121;SDS011;48108;47.532;19.084;2023-02-01T05:41:28;3.20;;;2.67;;
62121;SDS011;48108;47.532;19.084;2023-02-01T05:44:31;3.00;;;2.80;;
62121;SDS011;48108;47.532;19.084;2023-02-01T05:47:34;3.58;;;2.72;;
62121;SDS011;48108;47.532;19.084;2023-02-01T05:50:37;4.10;;;2.78;;
62121;SDS011;48108;47.532;19.084;2023-02-01T05:53:43;3.20;;;2.62;;
62121;SDS011;48108;47.532;19.084;2023-02-01T05:56:46;3.60;;;2.90;;
62121;SDS011;48108;47.532;19.084;2023-02-01T05:59:49;3.17;;;2.75;;
62121;SDS011;48108;47.532;19.084;2023-02-01T06:02:52;4.00;;;2.83;;
62121;SDS011;48108;47.532;19.084;2023-02-01T06:05:55;3.67;;;2.70;;
62121;SDS011;48108;47.532;19.084;2023-02-01T06:08:57;2.92;;;2.65;;
62121;SDS011;48108;47.532;19.084;2023-02-01T06:12:01;3.05;;;2.75;;
62121;SDS011;48108;47.532;19.084;2023-02-01T06:15:05;4.15;;;2.80;;
62121;SDS011;48108;47.532;19.084;2023-02-01T06:18:08;4.28;;;2.90;;
62121;SDS011;48108;47.532;19.084;2023-02-01T06:21:11;2.53;;;2.33;;
62121;SDS011;48108;47.532;19.084;2023-02-01T06:24:16;2.87;;;2.50;;
62121;SDS011;48108;47.532;19.084;2023-02-01T06:27:19;3.20;;;2.95;;
62121;SDS011;48108;47.532;19.084;2023-02-01T06:30:22;3.70;;;2.90;;
62121;SDS011;48108;47.532;19.084;2023-02-01T06:33:25;4.53;;;3.03;;
62121;SDS011;48108;47.532;19.084;2023-02-01T06:36:28;3.60;;;3.22;;
62121;SDS011;48108;47.532;19.084;2023-02-01T06:39:31;3.42;;;3.12;;
62121;SDS011;48108;47.532;19.084;2023-02-01T06:42:34;3.50;;;3.20;;
62121;SDS011;48108;47.532;19.084;2023-02-01T06:45:37;4.45;;;3.72;;
62121;SDS011;48108;47.532;19.084;2023-02-01T06:48:41;4.75;;;3.00;;
62121;SDS011;48108;47.532;19.084;2023-02-01T06:51:44;3.47;;;3.15;;
62121;SDS011;48108;47.532;19.084;2023-02-01T06:54:47;3.90;;;3.12;;
62121;SDS011;48108;47.532;19.084;2023-02-01T06:57:52;3.33;;;2.90;;
62121;SDS011;48108;47.532;19.084;2023-02-01T07:01:00;4.28;;;3.17;;
62121;SDS011;48108;47.532;19.084;2023-02-01T07:04:09;3.25;;;2.80;;
62121;SDS011;48108;47.532;19.084;2023-02-01T07:07:13;3.35;;;3.03;;
62121;SDS011;48108;47.532;19.084;2023-02-01T07:10:16;3.30;;;3.00;;
62121;SDS011;48108;47.532;19.084;2023-02-01T07:13:19;3.72;;;3.20;;
62121;SDS011;48108;47.532;19.084;2023-02-01T07:16:22;4.70;;;3.20;;
62121;SDS011;48108;47.532;19.084;2023-02-01T07:19:26;6.12;;;3.10;;
62121;SDS011;48108;47.532;19.084;2023-02-01T07:22:29;4.97;;;2.90;;
62121;SDS011;48108;47.532;19.084;2023-02-01T07:25:33;4.10;;;3.25;;
62121;SDS011;48108;47.532;19.084;2023-02-01T07:28:37;4.72;;;2.85;;
62121;SDS011;48108;47.532;19.084;2023-02-01T07:31:40;3.20;;;2.75;;
62121;SDS011;48108;47.532;19.084;2023-02-01T07:34:42;3.25;;;2.50;;
62121;SDS011;48108;47.532;19.084;2023-02-01T07:37:45;3.90;;;2.50;;
62121;SDS011;48108;47.532;19.084;2023-02-01T07:40:48;3.60;;;2.65;;
62121;SDS011;48108;47.532;19.084;2023-02-01T07:43:55;3.12;;;2.78;;
62121;SDS011;48108;47.532;19.084;2023-02-01T07:46:58;2.90;;;2.60;;
62121;SDS011;48108;47.532;19.084;2023-02-01T07:50:01;5.70;;;2.62;;
62121;SDS011;48108;47.532;19.084;2023-02-01T07:53:04;2.17;;;2.08;;
62121;SDS011;48108;47.532;19.084;2023-02-01T07:56:18;2.50;;;2.37;;
62121;SDS011;48108;47.532;19.084;2023-02-01T07:59:24;2.35;;;2.22;;
62121;SDS011;48108;47.532;19.084;2023-02-01T08:02:28;3.15;;;2.78;;
62121;SDS011;48108;47.532;19.084;2023-02-01T08:05:31;2.90;;;2.37;;
62121;SDS011;48108;47.532;19.084;2023-02-01T08:08:33;3.37;;;2.20;;
62121;SDS011;48108;47.532;19.084;2023-02-01T08:11:36;2.58;;;2.37;;
62121;SDS011;48108;47.532;19.084;2023-02-01T08:14:40;2.85;;;2.40;;
62121;SDS011;48108;47.532;19.084;2023-02-01T08:17:47;3.40;;;2.58;;
62121;SDS011;48108;47.532;19.084;2023-02-01T08:20:51;2.95;;;2.33;;
62121;SDS011;48108;47.532;19.084;2023-02-01T08:23:53;2.92;;;2.60;;
62121;SDS011;48108;47.532;19.084;2023-02-01T08:26:59;2.70;;;2.50;;
62121;SDS011;48108;47.532;19.084;2023-02-01T08:30:04;4.95;;;3.03;;
62121;SDS011;48108;47.532;19.084;2023-02-01T08:33:09;15.50;;;3.20;;
62121;SDS011;48108;47.532;19.084;2023-02-01T08:36:12;5.95;;;2.87;;
62121;SDS011;48108;47.532;19.084;2023-02-01T08:39:16;2.72;;;2.25;;
62121;SDS011;48108;47.532;19.084;2023-02-01T08:42:19;3.85;;;2.53;;
62121;SDS011;48108;47.532;19.084;2023-02-01T08:45:40;3.20;;;2.47;;
62121;SDS011;48108;47.532;19.084;2023-02-01T08:48:44;3.10;;;2.75;;
62121;SDS011;48108;47.532;19.084;2023-02-01T08:51:48;3.17;;;2.47;;
62121;SDS011;48108;47.532;19.084;2023-02-01T08:54:51;3.20;;;2.90;;
62121;SDS011;48108;47.532;19.084;2023-02-01T08:57:53;2.97;;;2.50;;
62121;SDS011;48108;47.532;19.084;2023-02-01T09:00:56;3.15;;;2.50;;
62121;SDS011;48108;47.532;19.084;2023-02-01T09:03:59;2.40;;;2.20;;
62121;SDS011;48108;47.532;19.084;2023-02-01T09:07:02;5.03;;;3.05;;
62121;SDS011;48108;47.532;19.084;2023-02-01T09:10:05;5.40;;;2.78;;
62121;SDS011;48108;47.532;19.084;2023-02-01T09:13:09;4.65;;;2.67;;
62121;SDS011;48108;47.532;19.084;2023-02-01T09:16:12;2.72;;;2.17;;
62121;SDS011;48108;47.532;19.084;2023-02-01T09:19:16;4.05;;;2.30;;
62121;SDS011;48108;47.532;19.084;2023-02-01T09:22:28;2.92;;;2.53;;
62121;SDS011;48108;47.532;19.084;2023-02-01T09:25:31;3.33;;;2.58;;
62121;SDS011;48108;47.532;19.084;2023-02-01T09:28:34;2.97;;;2.50;;
62121;SDS011;48108;47.532;19.084;2023-02-01T09:31:38;4.37;;;2.40;;
62121;SDS011;48108;47.532;19.084;2023-02-01T09:34:48;3.78;;;2.70;;
62121;SDS011;48108;47.532;19.084;2023-02-01T09:37:52;5.07;;;2.80;;
62121;SDS011;48108;47.532;19.084;2023-02-01T09:40:55;4.20;;;2.70;;
62121;SDS011;48108;47.532;19.084;2023-02-01T09:44:08;2.67;;;2.37;;
62121;SDS011;48108;47.532;19.084;2023-02-01T09:47:14;3.30;;;2.72;;
62121;SDS011;48108;47.532;19.084;2023-02-01T09:50:20;3.25;;;2.95;;
62121;SDS011;48108;47.532;19.084;2023-02-01T10:00:06;3.62;;;2.67;;
62121;SDS011;48108;47.532;19.084;2023-02-01T10:03:18;5.10;;;3.45;;
62121;SDS011;48108;47.532;19.084;2023-02-01T10:10:03;3.40;;;2.65;;
62121;SDS011;48108;47.532;19.084;2023-02-01T10:23:04;3.30;;;2.90;;
62121;SDS011;48108;47.532;19.084;2023-02-01T10:26:39;3.60;;;2.83;;
62121;SDS011;48108;47.532;19.084;2023-02-01T10:29:48;2.92;;;2.70;;
62121;SDS011;48108;47.532;19.084;2023-02-01T10:33:17;2.80;;;2.50;;
62121;SDS011;48108;47.532;19.084;2023-02-01T10:36:23;2.60;;;2.17;;
62121;SDS011;48108;47.532;19.084;2023-02-01T10:39:34;2.70;;;2.33;;
62121;SDS011;48108;47.532;19.084;2023-02-01T10:42:39;4.97;;;2.30;;
62121;SDS011;48108;47.532;19.084;2023-02-01T10:45:42;3.92;;;2.40;;
62121;SDS011;48108;47.532;19.084;2023-02-01T10:48:45;4.47;;;2.42;;
62121;SDS011;48108;47.532;19.084;2023-02-01T10:51:52;5.00;;;2.50;;
62121;SDS011;48108;47.532;19.084;2023-02-01T10:55:29;3.85;;;2.83;;
62121;SDS011;48108;47.532;19.084;2023-02-01T10:58:32;3.80;;;2.62;;
62121;SDS011;48108;47.532;19.084;2023-02-01T11:01:39;3.12;;;2.83;;
62121;SDS011;48108;47.532;19.084;2023-02-01T11:04:44;2.80;;;2.55;;
62121;SDS011;48108;47.532;19.084;2023-02-01T11:07:53;4.03;;;2.75;;
62121;SDS011;48108;47.532;19.084;2023-02-01T11:11:02;3.72;;;2.72;;
62121;SDS011;48108;47.532;19.084;2023-02-01T11:20:21;6.95;;;2.78;;
62121;SDS011;48108;47.532;19.084;2023-02-01T11:23:29;3.00;;;2.73;;
62121;SDS011;48108;47.532;19.084;2023-02-01T11:26:35;4.00;;;3.30;;
62121;SDS011;48108;47.532;19.084;2023-02-01T11:29:46;4.65;;;3.10;;
62121;SDS011;48108;47.532;19.084;2023-02-01T11:32:52;3.75;;;3.37;;
62121;SDS011;48108;47.532;19.084;2023-02-01T11:35:56;6.85;;;3.58;;
62121;SDS011;48108;47.532;19.084;2023-02-01T11:42:22;4.97;;;3.70;;
62121;SDS011;48108;47.532;19.084;2023-02-01T11:48:32;4.90;;;4.12;;
62121;SDS011;48108;47.532;19.084;2023-02-01T12:12:43;6.50;;;4.37;;
62121;SDS011;48108;47.532;19.084;2023-02-01T12:19:26;6.43;;;4.40;;
62121;SDS011;48108;47.532;19.084;2023-02-01T12:22:55;7.30;;;4.57;;
62121;SDS011;48108;47.532;19.084;2023-02-01T12:29:36;6.18;;;4.00;;
62121;SDS011;48108;47.532;19.084;2023-02-01T12:43:09;5.05;;;3.62;;
62121;SDS011;48108;47.532;19.084;2023-02-01T12:46:28;3.55;;;3.12;;
62121;SDS011;48108;47.532;19.084;2023-02-01T12:53:18;4.25;;;2.85;;
62121;SDS011;48108;47.532;19.084;2023-02-01T12:59:39;5.07;;;3.47;;
62121;SDS011;48108;47.532;19.084;2023-02-01T13:06:37;4.15;;;2.90;;
62121;SDS011;48108;47.532;19.084;2023-02-01T13:09:52;4.85;;;3.55;;
62121;SDS011;48108;47.532;19.084;2023-02-01T13:16:28;5.53;;;3.00;;
62121;SDS011;48108;47.532;19.084;2023-02-01T13:23:32;3.50;;;2.90;;
62121;SDS011;48108;47.532;19.084;2023-02-01T13:26:39;3.30;;;2.78;;
62121;SDS011;48108;47.532;19.084;2023-02-01T13:37:49;3.95;;;3.00;;
62121;SDS011;48108;47.532;19.084;2023-02-01T13:41:35;3.55;;;3.25;;
62121;SDS011;48108;47.532;19.084;2023-02-01T13:44:39;4.78;;;3.15;;
62121;SDS011;48108;47.532;19.084;2023-02-01T13:47:49;5.10;;;3.45;;
62121;SDS011;48108;47.532;19.084;2023-02-01T13:50:57;4.90;;;3.55;;
62121;SDS011;48108;47.532;19.084;2023-02-01T13:54:02;4.82;;;3.62;;
62121;SDS011;48108;47.532;19.084;2023-02-01T13:57:14;5.70;;;3.50;;
62121;SDS011;48108;47.532;19.084;2023-02-01T14:00:40;4.82;;;3.50;;
62121;SDS011;48108;47.532;19.084;2023-02-01T14:03:59;5.07;;;3.42;;
62121;SDS011;48108;47.532;19.084;2023-02-01T14:07:15;5.82;;;3.87;;
62121;SDS011;48108;47.532;19.084;2023-02-01T14:11:06;4.53;;;3.53;;
62121;SDS011;48108;47.532;19.084;2023-02-01T14:13:49;3.90;;;3.03;;
62121;SDS011;48108;47.532;19.084;2023-02-01T14:20:36;4.72;;;3.20;;
62121;SDS011;48108;47.532;19.084;2023-02-01T14:23:40;4.05;;;3.55;;
62121;SDS011;48108;47.532;19.084;2023-02-01T14:26:49;5.37;;;3.60;;
62121;SDS011;48108;47.532;19.084;2023-02-01T14:33:11;3.12;;;2.83;;
62121;SDS011;48108;47.532;19.084;2023-02-01T14:36:21;3.90;;;2.20;;
62121;SDS011;48108;47.532;19.084;2023-02-01T14:42:42;3.53;;;2.72;;
62121;SDS011;48108;47.532;19.084;2023-02-01T14:45:49;2.75;;;2.45;;
62121;SDS011;48108;47.532;19.084;2023-02-01T14:48:53;3.47;;;2.55;;
62121;SDS011;48108;47.532;19.084;2023-02-01T14:51:57;3.47;;;2.20;;
62121;SDS011;48108;47.532;19.084;2023-02-01T14:55:04;4.03;;;2.45;;
62121;SDS011;48108;47.532;19.084;2023-02-01T15:01:36;2.30;;;2.10;;
62121;SDS011;48108;47.532;19.084;2023-02-01T15:04:41;3.75;;;2.20;;
62121;SDS011;48108;47.532;19.084;2023-02-01T15:07:45;2.78;;;2.28;;
62121;SDS011;48108;47.532;19.084;2023-02-01T15:10:49;3.08;;;2.00;;
62121;SDS011;48108;47.532;19.084;2023-02-01T15:13:54;1.77;;;1.67;;
62121;SDS011;48108;47.532;19.084;2023-02-01T15:16:59;1.87;;;1.62;;
62121;SDS011;48108;47.532;19.084;2023-02-01T15:20:03;2.05;;;1.70;;
62121;SDS011;48108;47.532;19.084;2023-02-01T15:23:18;2.25;;;1.70;;
62121;SDS011;48108;47.532;19.084;2023-02-01T15:26:28;5.15;;;1.60;;
62121;SDS011;48108;47.532;19.084;2023-02-01T15:29:32;2.22;;;2.03;;
62121;SDS011;48108;47.532;19.084;2023-02-01T15:32:37;1.67;;;1.58;;
62121;SDS011;48108;47.532;19.084;2023-02-01T15:38:49;1.87;;;1.60;;
62121;SDS011;48108;47.532;19.084;2023-02-01T15:42:22;1.85;;;1.70;;
62121;SDS011;48108;47.532;19.084;2023-02-01T15:45:25;2.72;;;2.15;;
62121;SDS011;48108;47.532;19.084;2023-02-01T15:48:32;4.30;;;2.00;;
62121;SDS011;48108;47.532;19.084;2023-02-01T15:51:39;3.35;;;2.25;;
62121;SDS011;48108;47.532;19.084;2023-02-01T15:54:49;3.28;;;1.62;;
62121;SDS011;48108;47.532;19.084;2023-02-01T15:57:57;3.65;;;1.90;;
62121;SDS011;48108;47.532;19.084;2023-02-01T16:01:04;4.80;;;2.12;;
62121;SDS011;48108;47.532;19.084;2023-02-01T16:07:33;5.12;;;2.45;;
62121;SDS011;48108;47.532;19.084;2023-02-01T16:10:44;2.00;;;1.80;;
62121;SDS011;48108;47.532;19.084;2023-02-01T16:13:48;5.25;;;1.92;;
62121;SDS011;48108;47.532;19.084;2023-02-01T16:16:53;3.50;;;1.70;;
62121;SDS011;48108;47.532;19.084;2023-02-01T16:19:57;1.70;;;1.60;;
62121;SDS011;48108;47.532;19.084;2023-02-01T16:23:01;2.03;;;1.80;;
62121;SDS011;48108;47.532;19.084;2023-02-01T16:26:04;2.17;;;1.80;;
62121;SDS011;48108;47.532;19.084;2023-02-01T16:29:08;3.72;;;1.95;;
62121;SDS011;48108;47.532;19.084;2023-02-01T16:32:18;1.87;;;1.42;;
62121;SDS011;48108;47.532;19.084;2023-02-01T16:35:26;4.57;;;2.10;;
62121;SDS011;48108;47.532;19.084;2023-02-01T16:38:33;3.05;;;1.70;;
62121;SDS011;48108;47.532;19.084;2023-02-01T16:41:36;3.17;;;2.12;;
62121;SDS011;48108;47.532;19.084;2023-02-01T16:44:39;2.10;;;2.00;;
62121;SDS011;48108;47.532;19.084;2023-02-01T16:47:45;3.10;;;2.03;;
62121;SDS011;48108;47.532;19.084;2023-02-01T16:51:00;2.97;;;2.12;;
62121;SDS011;48108;47.532;19.084;2023-02-01T16:54:07;3.72;;;1.80;;
62121;SDS011;48108;47.532;19.084;2023-02-01T16:57:11;2.30;;;2.10;;
